sensor_id;sensor_type;location;lat;lon;timestamp;P1;durP1;ratioP1;P2;durP2;ratioP2
59907;SDS011;61804;54.926;73.496;2024-02-23T00:00:06;19.27;;;6.10;;
59907;SDS011;61804;54.926;73.496;2024-02-23T00:02:35;9.60;;;6.95;;
59907;SDS011;61804;54.926;73.496;2024-02-23T00:05:03;5.70;;;5.18;;
59907;SDS011;61804;54.926;73.496;2024-02-23T00:07:31;18.15;;;8.35;;
59907;SDS011;61804;54.926;73.496;2024-02-23T00:09:59;10.10;;;9.07;;
59907;SDS011;61804;54.926;73.496;2024-02-23T00:12:27;14.68;;;11.18;;
59907;SDS011;61804;54.926;73.496;2024-02-23T00:14:55;14.30;;;5.97;;
59907;SDS011;61804;54.926;73.496;2024-02-23T00:17:23;15.63;;;7.63;;
59907;SDS011;61804;54.926;73.496;2024-02-23T00:19:52;6.75;;;4.45;;
59907;SDS011;61804;54.926;73.496;2024-02-23T00:22:20;5.75;;;3.75;;
59907;SDS011;61804;54.926;73.496;2024-02-23T00:24:48;14.82;;;7.68;;
59907;SDS011;61804;54.926;73.496;2024-02-23T00:27:15;20.33;;;10.38;;
59907;SDS011;61804;54.926;73.496;2024-02-23T00:29:43;15.02;;;8.45;;
59907;SDS011;61804;54.926;73.496;2024-02-23T00:32:11;18.77;;;9.27;;
59907;SDS011;61804;54.926;73.496;2024-02-23T00:34:39;4.35;;;2.33;;
59907;SDS011;61804;54.926;73.496;2024-02-23T00:37:07;12.55;;;5.13;;
59907;SDS011;61804;54.926;73.496;2024-02-23T00:39:35;10.27;;;7.90;;
59907;SDS011;61804;54.926;73.496;2024-02-23T00:42:04;20.45;;;11.15;;
59907;SDS011;61804;54.926;73.496;2024-02-23T00:44:32;64.07;;;32.90;;
59907;SDS011;61804;54.926;73.496;2024-02-23T00:47:00;16.05;;;12.70;;
59907;SDS011;61804;54.926;73.496;2024-02-23T00:49:31;21.55;;;6.88;;
59907;SDS011;61804;54.926;73.496;2024-02-23T00:51:59;12.93;;;9.93;;
59907;SDS011;61804;54.926;73.496;2024-02-23T00:54:29;26.85;;;17.13;;
59907;SDS011;61804;54.926;73.496;2024-02-23T00:56:56;21.55;;;10.55;;
59907;SDS011;61804;54.926;73.496;2024-02-23T00:59:23;14.32;;;12.27;;
59907;SDS011;61804;54.926;73.496;2024-02-23T01:01:51;14.32;;;11.80;;
59907;SDS011;61804;54.926;73.496;2024-02-23T01:04:19;9.40;;;7.30;;
59907;SDS011;61804;54.926;73.496;2024-02-23T01:06:48;18.60;;;10.65;;
59907;SDS011;61804;54.926;73.496;2024-02-23T01:09:17;7.03;;;4.93;;
59907;SDS011;61804;54.926;73.496;2024-02-23T01:11:48;20.75;;;9.65;;
59907;SDS011;61804;54.926;73.496;2024-02-23T01:14:15;17.65;;;10.27;;
59907;SDS011;61804;54.926;73.496;2024-02-23T01:16:42;15.15;;;9.45;;
59907;SDS011;61804;54.926;73.496;2024-02-23T01:19:10;13.75;;;7.68;;
59907;SDS011;61804;54.926;73.496;2024-02-23T01:21:40;16.05;;;9.32;;
59907;SDS011;61804;54.926;73.496;2024-02-23T01:24:07;14.43;;;5.93;;
59907;SDS011;61804;54.926;73.496;2024-02-23T01:26:36;8.52;;;6.38;;
59907;SDS011;61804;54.926;73.496;2024-02-23T01:29:05;15.27;;;4.35;;
59907;SDS011;61804;54.926;73.496;2024-02-23T01:31:33;11.15;;;5.82;;
59907;SDS011;61804;54.926;73.496;2024-02-23T01:34:00;14.95;;;9.73;;
59907;SDS011;61804;54.926;73.496;2024-02-23T01:36:27;6.40;;;3.95;;
59907;SDS011;61804;54.926;73.496;2024-02-23T01:38:56;14.98;;;10.02;;
59907;SDS011;61804;54.926;73.496;2024-02-23T01:41:24;9.43;;;6.22;;
59907;SDS011;61804;54.926;73.496;2024-02-23T01:43:52;10.30;;;8.18;;
59907;SDS011;61804;54.926;73.496;2024-02-23T01:46:20;8.88;;;7.70;;
59907;SDS011;61804;54.926;73.496;2024-02-23T01:48:50;27.50;;;7.85;;
59907;SDS011;61804;54.926;73.496;2024-02-23T01:51:29;13.88;;;9.45;;
59907;SDS011;61804;54.926;73.496;2024-02-23T01:53:57;9.18;;;8.32;;
59907;SDS011;61804;54.926;73.496;2024-02-23T01:56:25;9.68;;;7.65;;
59907;SDS011;61804;54.926;73.496;2024-02-23T01:58:53;8.95;;;4.82;;
59907;SDS011;61804;54.926;73.496;2024-02-23T02:01:23;13.32;;;8.68;;
59907;SDS011;61804;54.926;73.496;2024-02-23T02:03:52;12.10;;;10.73;;
59907;SDS011;61804;54.926;73.496;2024-02-23T02:06:21;6.57;;;5.95;;
59907;SDS011;61804;54.926;73.496;2024-02-23T02:08:48;13.18;;;9.82;;
59907;SDS011;61804;54.926;73.496;2024-02-23T02:11:17;14.73;;;6.90;;
59907;SDS011;61804;54.926;73.496;2024-02-23T02:13:45;11.77;;;9.10;;
59907;SDS011;61804;54.926;73.496;2024-02-23T02:16:14;23.98;;;13.60;;
59907;SDS011;61804;54.926;73.496;2024-02-23T02:18:41;18.13;;;10.63;;
59907;SDS011;61804;54.926;73.496;2024-02-23T02:21:11;34.88;;;13.98;;
59907;SDS011;61804;54.926;73.496;2024-02-23T02:23:40;11.70;;;10.07;;
59907;SDS011;61804;54.926;73.496;2024-02-23T02:26:09;10.52;;;5.93;;
59907;SDS011;61804;54.926;73.496;2024-02-23T02:28:37;10.45;;;9.40;;
59907;SDS011;61804;54.926;73.496;2024-02-23T02:31:05;26.95;;;17.02;;
59907;SDS011;61804;54.926;73.496;2024-02-23T02:33:32;19.60;;;11.30;;
59907;SDS011;61804;54.926;73.496;2024-02-23T02:36:00;26.52;;;15.57;;
59907;SDS011;61804;54.926;73.496;2024-02-23T02:38:28;15.02;;;12.57;;
59907;SDS011;61804;54.926;73.496;2024-02-23T02:40:56;26.55;;;13.45;;
59907;SDS011;61804;54.926;73.496;2024-02-23T02:43:24;23.80;;;11.70;;
59907;SDS011;61804;54.926;73.496;2024-02-23T02:45:51;17.35;;;11.02;;
59907;SDS011;61804;54.926;73.496;2024-02-23T02:48:19;12.15;;;8.38;;
59907;SDS011;61804;54.926;73.496;2024-02-23T02:50:46;13.82;;;9.68;;
59907;SDS011;61804;54.926;73.496;2024-02-23T02:53:15;22.92;;;8.60;;
59907;SDS011;61804;54.926;73.496;2024-02-23T02:55:44;36.22;;;16.48;;
59907;SDS011;61804;54.926;73.496;2024-02-23T02:58:11;16.42;;;11.65;;
59907;SDS011;61804;54.926;73.496;2024-02-23T03:00:39;31.08;;;17.67;;
59907;SDS011;61804;54.926;73.496;2024-02-23T03:03:09;12.38;;;8.00;;
59907;SDS011;61804;54.926;73.496;2024-02-23T03:05:38;23.35;;;10.23;;
59907;SDS011;61804;54.926;73.496;2024-02-23T03:08:05;7.18;;;4.88;;
59907;SDS011;61804;54.926;73.496;2024-02-23T03:10:33;28.90;;;17.08;;
59907;SDS011;61804;54.926;73.496;2024-02-23T03:13:00;27.30;;;17.13;;
59907;SDS011;61804;54.926;73.496;2024-02-23T03:15:29;23.10;;;14.20;;
59907;SDS011;61804;54.926;73.496;2024-02-23T03:17:56;25.05;;;15.82;;
59907;SDS011;61804;54.926;73.496;2024-02-23T03:20:24;27.75;;;13.13;;
59907;SDS011;61804;54.926;73.496;2024-02-23T03:22:52;30.48;;;19.00;;
59907;SDS011;61804;54.926;73.496;2024-02-23T03:25:20;28.73;;;17.45;;
59907;SDS011;61804;54.926;73.496;2024-02-23T03:27:47;37.33;;;17.55;;
59907;SDS011;61804;54.926;73.496;2024-02-23T03:30:16;23.40;;;15.55;;
59907;SDS011;61804;54.926;73.496;2024-02-23T03:32:44;39.38;;;17.60;;
59907;SDS011;61804;54.926;73.496;2024-02-23T03:35:16;27.10;;;14.23;;
59907;SDS011;61804;54.926;73.496;2024-02-23T03:37:45;22.20;;;12.85;;
59907;SDS011;61804;54.926;73.496;2024-02-23T03:40:12;29.48;;;17.65;;
59907;SDS011;61804;54.926;73.496;2024-02-23T03:42:40;32.10;;;17.65;;
59907;SDS011;61804;54.926;73.496;2024-02-23T03:45:09;28.50;;;18.30;;
59907;SDS011;61804;54.926;73.496;2024-02-23T03:47:48;35.78;;;19.90;;
59907;SDS011;61804;54.926;73.496;2024-02-23T03:50:16;32.30;;;16.52;;
59907;SDS011;61804;54.926;73.496;2024-02-23T03:52:44;28.48;;;20.05;;
59907;SDS011;61804;54.926;73.496;2024-02-23T03:55:13;22.35;;;17.90;;
59907;SDS011;61804;54.926;73.496;2024-02-23T03:57:40;27.88;;;14.60;;
59907;SDS011;61804;54.926;73.496;2024-02-23T04:00:08;27.83;;;18.60;;
59907;SDS011;61804;54.926;73.496;2024-02-23T04:02:41;27.58;;;19.50;;
59907;SDS011;61804;54.926;73.496;2024-02-23T04:05:09;33.88;;;18.30;;
59907;SDS011;61804;54.926;73.496;2024-02-23T04:07:37;21.35;;;15.80;;
59907;SDS011;61804;54.926;73.496;2024-02-23T04:10:05;23.15;;;16.27;;
59907;SDS011;61804;54.926;73.496;2024-02-23T04:12:34;28.23;;;18.02;;
59907;SDS011;61804;54.926;73.496;2024-02-23T04:15:01;28.73;;;17.50;;
59907;SDS011;61804;54.926;73.496;2024-02-23T04:17:29;21.23;;;14.20;;
59907;SDS011;61804;54.926;73.496;2024-02-23T04:20:00;22.75;;;16.58;;
59907;SDS011;61804;54.926;73.496;2024-02-23T04:22:29;26.30;;;21.35;;
59907;SDS011;61804;54.926;73.496;2024-02-23T04:25:09;53.00;;;26.85;;
59907;SDS011;61804;54.926;73.496;2024-02-23T04:27:37;41.50;;;27.90;;
59907;SDS011;61804;54.926;73.496;2024-02-23T04:30:05;39.17;;;27.10;;
59907;SDS011;61804;54.926;73.496;2024-02-23T04:32:34;39.85;;;21.33;;
59907;SDS011;61804;54.926;73.496;2024-02-23T04:35:02;36.72;;;22.35;;
59907;SDS011;61804;54.926;73.496;2024-02-23T04:37:30;34.70;;;19.55;;
59907;SDS011;61804;54.926;73.496;2024-02-23T04:39:57;28.92;;;16.80;;
59907;SDS011;61804;54.926;73.496;2024-02-23T04:42:28;28.05;;;21.40;;
59907;SDS011;61804;54.926;73.496;2024-02-23T04:44:55;26.55;;;19.20;;
59907;SDS011;61804;54.926;73.496;2024-02-23T04:47:23;23.08;;;19.75;;
59907;SDS011;61804;54.926;73.496;2024-02-23T04:49:52;35.83;;;22.20;;
59907;SDS011;61804;54.926;73.496;2024-02-23T04:52:20;33.42;;;22.02;;
59907;SDS011;61804;54.926;73.496;2024-02-23T04:55:01;27.27;;;22.42;;
59907;SDS011;61804;54.926;73.496;2024-02-23T04:57:28;39.60;;;24.23;;
59907;SDS011;61804;54.926;73.496;2024-02-23T04:59:56;49.42;;;30.52;;
59907;SDS011;61804;54.926;73.496;2024-02-23T05:02:24;31.17;;;20.33;;
59907;SDS011;61804;54.926;73.496;2024-02-23T05:04:55;37.28;;;17.80;;
59907;SDS011;61804;54.926;73.496;2024-02-23T05:07:24;26.60;;;19.70;;
59907;SDS011;61804;54.926;73.496;2024-02-23T05:09:51;28.02;;;19.35;;
59907;SDS011;61804;54.926;73.496;2024-02-23T05:12:19;30.83;;;19.98;;
59907;SDS011;61804;54.926;73.496;2024-02-23T05:14:50;25.20;;;19.23;;
59907;SDS011;61804;54.926;73.496;2024-02-23T05:17:19;40.15;;;18.52;;
59907;SDS011;61804;54.926;73.496;2024-02-23T05:19:48;30.85;;;20.25;;
59907;SDS011;61804;54.926;73.496;2024-02-23T05:22:17;31.92;;;20.55;;
59907;SDS011;61804;54.926;73.496;2024-02-23T05:24:46;28.92;;;21.75;;
59907;SDS011;61804;54.926;73.496;2024-02-23T05:27:13;34.30;;;21.42;;
59907;SDS011;61804;54.926;73.496;2024-02-23T05:29:40;39.55;;;26.83;;
59907;SDS011;61804;54.926;73.496;2024-02-23T05:32:08;27.65;;;20.33;;
59907;SDS011;61804;54.926;73.496;2024-02-23T05:34:36;42.10;;;28.00;;
59907;SDS011;61804;54.926;73.496;2024-02-23T05:37:05;52.83;;;36.22;;
59907;SDS011;61804;54.926;73.496;2024-02-23T05:39:33;50.35;;;33.35;;
59907;SDS011;61804;54.926;73.496;2024-02-23T05:42:01;48.22;;;28.20;;
59907;SDS011;61804;54.926;73.496;2024-02-23T05:44:29;31.83;;;23.05;;
59907;SDS011;61804;54.926;73.496;2024-02-23T05:46:56;32.70;;;22.17;;
59907;SDS011;61804;54.926;73.496;2024-02-23T05:49:25;36.10;;;27.02;;
59907;SDS011;61804;54.926;73.496;2024-02-23T05:51:53;46.28;;;32.30;;
59907;SDS011;61804;54.926;73.496;2024-02-23T05:54:22;67.53;;;40.08;;
59907;SDS011;61804;54.926;73.496;2024-02-23T05:56:51;59.67;;;38.03;;
59907;SDS011;61804;54.926;73.496;2024-02-23T05:59:18;58.80;;;30.67;;
59907;SDS011;61804;54.926;73.496;2024-02-23T06:01:46;31.33;;;23.17;;
59907;SDS011;61804;54.926;73.496;2024-02-23T06:04:13;31.40;;;19.85;;
59907;SDS011;61804;54.926;73.496;2024-02-23T06:06:41;36.05;;;22.02;;
59907;SDS011;61804;54.926;73.496;2024-02-23T06:09:10;27.50;;;20.67;;
59907;SDS011;61804;54.926;73.496;2024-02-23T06:11:37;34.65;;;20.48;;
59907;SDS011;61804;54.926;73.496;2024-02-23T06:14:06;30.33;;;20.75;;
59907;SDS011;61804;54.926;73.496;2024-02-23T06:16:33;31.50;;;21.65;;
59907;SDS011;61804;54.926;73.496;2024-02-23T06:19:02;18.77;;;16.38;;
59907;SDS011;61804;54.926;73.496;2024-02-23T06:21:31;29.25;;;20.73;;
59907;SDS011;61804;54.926;73.496;2024-02-23T06:23:59;25.58;;;19.70;;
59907;SDS011;61804;54.926;73.496;2024-02-23T06:26:27;26.42;;;21.17;;
59907;SDS011;61804;54.926;73.496;2024-02-23T06:28:55;30.60;;;20.15;;
59907;SDS011;61804;54.926;73.496;2024-02-23T06:31:23;27.35;;;19.55;;
59907;SDS011;61804;54.926;73.496;2024-02-23T06:33:50;28.95;;;17.90;;
59907;SDS011;61804;54.926;73.496;2024-02-23T06:36:18;20.23;;;15.32;;
59907;SDS011;61804;54.926;73.496;2024-02-23T06:38:46;21.80;;;14.73;;
59907;SDS011;61804;54.926;73.496;2024-02-23T06:41:13;17.70;;;15.65;;
59907;SDS011;61804;54.926;73.496;2024-02-23T06:43:42;20.80;;;16.17;;
59907;SDS011;61804;54.926;73.496;2024-02-23T06:46:09;16.00;;;13.68;;
59907;SDS011;61804;54.926;73.496;2024-02-23T06:48:39;24.52;;;14.02;;
59907;SDS011;61804;54.926;73.496;2024-02-23T06:51:07;16.42;;;13.50;;
59907;SDS011;61804;54.926;73.496;2024-02-23T06:53:37;20.17;;;14.60;;
59907;SDS011;61804;54.926;73.496;2024-02-23T06:56:04;23.30;;;16.40;;
59907;SDS011;61804;54.926;73.496;2024-02-23T06:58:34;21.73;;;15.88;;
59907;SDS011;61804;54.926;73.496;2024-02-23T07:01:02;31.30;;;23.42;;
59907;SDS011;61804;54.926;73.496;2024-02-23T07:03:30;25.42;;;17.05;;
59907;SDS011;61804;54.926;73.496;2024-02-23T07:05:57;31.10;;;14.98;;
59907;SDS011;61804;54.926;73.496;2024-02-23T07:08:25;33.63;;;16.42;;
59907;SDS011;61804;54.926;73.496;2024-02-23T07:10:52;17.17;;;12.85;;
59907;SDS011;61804;54.926;73.496;2024-02-23T07:13:21;18.25;;;15.82;;
59907;SDS011;61804;54.926;73.496;2024-02-23T07:15:48;18.27;;;14.18;;
59907;SDS011;61804;54.926;73.496;2024-02-23T07:18:16;19.30;;;14.52;;
59907;SDS011;61804;54.926;73.496;2024-02-23T07:20:43;32.22;;;14.88;;
59907;SDS011;61804;54.926;73.496;2024-02-23T07:23:11;22.90;;;16.92;;
59907;SDS011;61804;54.926;73.496;2024-02-23T07:25:39;28.30;;;20.20;;
59907;SDS011;61804;54.926;73.496;2024-02-23T07:28:08;23.17;;;17.80;;
59907;SDS011;61804;54.926;73.496;2024-02-23T07:30:36;20.98;;;16.17;;
59907;SDS011;61804;54.926;73.496;2024-02-23T07:33:03;21.55;;;16.70;;
59907;SDS011;61804;54.926;73.496;2024-02-23T07:35:34;29.40;;;15.93;;
59907;SDS011;61804;54.926;73.496;2024-02-23T07:38:04;33.72;;;16.38;;
59907;SDS011;61804;54.926;73.496;2024-02-23T07:40:31;21.30;;;13.27;;
59907;SDS011;61804;54.926;73.496;2024-02-23T07:42:59;22.27;;;12.00;;
59907;SDS011;61804;54.926;73.496;2024-02-23T07:45:27;25.58;;;17.00;;
59907;SDS011;61804;54.926;73.496;2024-02-23T07:47:55;23.17;;;13.23;;
59907;SDS011;61804;54.926;73.496;2024-02-23T07:50:24;19.42;;;15.77;;
59907;SDS011;61804;54.926;73.496;2024-02-23T07:53:04;22.08;;;14.93;;
59907;SDS011;61804;54.926;73.496;2024-02-23T07:55:34;24.05;;;19.88;;
59907;SDS011;61804;54.926;73.496;2024-02-23T07:58:02;21.73;;;13.00;;
59907;SDS011;61804;54.926;73.496;2024-02-23T08:00:31;15.85;;;11.25;;
59907;SDS011;61804;54.926;73.496;2024-02-23T08:03:02;22.13;;;15.02;;
59907;SDS011;61804;54.926;73.496;2024-02-23T08:05:29;15.82;;;11.30;;
59907;SDS011;61804;54.926;73.496;2024-02-23T08:07:58;14.57;;;9.13;;
59907;SDS011;61804;54.926;73.496;2024-02-23T08:10:25;12.90;;;11.52;;
59907;SDS011;61804;54.926;73.496;2024-02-23T08:12:54;21.98;;;11.70;;
59907;SDS011;61804;54.926;73.496;2024-02-23T08:15:21;21.33;;;11.68;;
59907;SDS011;61804;54.926;73.496;2024-02-23T08:17:49;14.27;;;11.45;;
59907;SDS011;61804;54.926;73.496;2024-02-23T08:20:16;16.42;;;11.18;;
59907;SDS011;61804;54.926;73.496;2024-02-23T08:22:43;14.13;;;12.48;;
59907;SDS011;61804;54.926;73.496;2024-02-23T08:25:11;26.30;;;18.23;;
59907;SDS011;61804;54.926;73.496;2024-02-23T08:27:41;17.73;;;12.40;;
59907;SDS011;61804;54.926;73.496;2024-02-23T08:30:08;20.02;;;14.18;;
59907;SDS011;61804;54.926;73.496;2024-02-23T08:32:37;26.02;;;18.30;;
59907;SDS011;61804;54.926;73.496;2024-02-23T08:35:06;32.70;;;16.23;;
59907;SDS011;61804;54.926;73.496;2024-02-23T08:37:35;20.15;;;14.55;;
59907;SDS011;61804;54.926;73.496;2024-02-23T08:40:03;20.05;;;13.73;;
59907;SDS011;61804;54.926;73.496;2024-02-23T08:42:33;18.25;;;12.20;;
59907;SDS011;61804;54.926;73.496;2024-02-23T08:45:02;11.85;;;10.55;;
59907;SDS011;61804;54.926;73.496;2024-02-23T08:47:29;13.75;;;11.25;;
59907;SDS011;61804;54.926;73.496;2024-02-23T08:50:01;17.35;;;11.75;;
59907;SDS011;61804;54.926;73.496;2024-02-23T08:52:29;19.48;;;10.68;;
59907;SDS011;61804;54.926;73.496;2024-02-23T08:54:58;16.35;;;10.25;;
59907;SDS011;61804;54.926;73.496;2024-02-23T08:57:27;15.77;;;12.27;;
59907;SDS011;61804;54.926;73.496;2024-02-23T08:59:55;13.88;;;11.02;;
59907;SDS011;61804;54.926;73.496;2024-02-23T09:02:24;13.18;;;11.77;;
59907;SDS011;61804;54.926;73.496;2024-02-23T09:04:53;13.45;;;9.85;;
59907;SDS011;61804;54.926;73.496;2024-02-23T09:07:21;21.20;;;11.02;;
59907;SDS011;61804;54.926;73.496;2024-02-23T09:09:49;16.38;;;10.93;;
59907;SDS011;61804;54.926;73.496;2024-02-23T09:12:17;12.07;;;10.88;;
59907;SDS011;61804;54.926;73.496;2024-02-23T09:14:45;14.80;;;10.25;;
59907;SDS011;61804;54.926;73.496;2024-02-23T09:17:13;20.70;;;13.32;;
59907;SDS011;61804;54.926;73.496;2024-02-23T09:19:41;20.67;;;10.38;;
59907;SDS011;61804;54.926;73.496;2024-02-23T09:22:09;15.68;;;11.27;;
59907;SDS011;61804;54.926;73.496;2024-02-23T09:24:41;14.60;;;12.13;;
59907;SDS011;61804;54.926;73.496;2024-02-23T09:27:08;13.85;;;11.25;;
59907;SDS011;61804;54.926;73.496;2024-02-23T09:29:36;18.88;;;12.90;;
59907;SDS011;61804;54.926;73.496;2024-02-23T09:32:04;21.30;;;13.45;;
59907;SDS011;61804;54.926;73.496;2024-02-23T09:34:32;18.58;;;14.07;;
59907;SDS011;61804;54.926;73.496;2024-02-23T09:37:00;19.63;;;14.88;;
59907;SDS011;61804;54.926;73.496;2024-02-23T09:39:28;22.55;;;15.88;;
59907;SDS011;61804;54.926;73.496;2024-02-23T09:41:57;22.27;;;18.63;;
59907;SDS011;61804;54.926;73.496;2024-02-23T09:44:26;18.30;;;11.82;;
59907;SDS011;61804;54.926;73.496;2024-02-23T09:47:04;16.30;;;12.30;;
59907;SDS011;61804;54.926;73.496;2024-02-23T09:49:40;22.92;;;14.85;;
59907;SDS011;61804;54.926;73.496;2024-02-23T09:52:08;27.35;;;13.05;;
59907;SDS011;61804;54.926;73.496;2024-02-23T09:54:39;18.35;;;12.57;;
59907;SDS011;61804;54.926;73.496;2024-02-23T09:57:08;21.88;;;13.88;;
59907;SDS011;61804;54.926;73.496;2024-02-23T09:59:36;19.58;;;12.65;;
59907;SDS011;61804;54.926;73.496;2024-02-23T10:02:08;14.20;;;12.60;;
59907;SDS011;61804;54.926;73.496;2024-02-23T10:04:38;19.02;;;11.55;;
59907;SDS011;61804;54.926;73.496;2024-02-23T10:07:07;15.55;;;11.77;;
59907;SDS011;61804;54.926;73.496;2024-02-23T10:09:35;17.95;;;13.85;;
59907;SDS011;61804;54.926;73.496;2024-02-23T10:12:03;16.77;;;13.23;;
59907;SDS011;61804;54.926;73.496;2024-02-23T10:14:30;20.83;;;13.60;;
59907;SDS011;61804;54.926;73.496;2024-02-23T10:16:58;21.80;;;12.90;;
59907;SDS011;61804;54.926;73.496;2024-02-23T10:19:26;21.55;;;14.18;;
59907;SDS011;61804;54.926;73.496;2024-02-23T10:21:57;19.42;;;13.35;;
59907;SDS011;61804;54.926;73.496;2024-02-23T10:24:25;16.80;;;12.98;;
59907;SDS011;61804;54.926;73.496;2024-02-23T10:26:52;19.58;;;13.35;;
59907;SDS011;61804;54.926;73.496;2024-02-23T10:29:20;18.98;;;13.82;;
59907;SDS011;61804;54.926;73.496;2024-02-23T10:31:48;23.13;;;15.15;;
59907;SDS011;61804;54.926;73.496;2024-02-23T10:34:19;20.63;;;14.52;;
59907;SDS011;61804;54.926;73.496;2024-02-23T10:36:47;22.88;;;14.48;;
59907;SDS011;61804;54.926;73.496;2024-02-23T10:39:17;16.83;;;12.30;;
59907;SDS011;61804;54.926;73.496;2024-02-23T10:41:56;15.27;;;10.88;;
59907;SDS011;61804;54.926;73.496;2024-02-23T10:44:27;22.08;;;12.50;;
59907;SDS011;61804;54.926;73.496;2024-02-23T10:46:55;21.67;;;15.55;;
59907;SDS011;61804;54.926;73.496;2024-02-23T10:49:25;16.13;;;12.30;;
59907;SDS011;61804;54.926;73.496;2024-02-23T10:51:54;18.60;;;10.50;;
59907;SDS011;61804;54.926;73.496;2024-02-23T10:54:23;14.15;;;9.90;;
59907;SDS011;61804;54.926;73.496;2024-02-23T10:56:54;27.95;;;10.73;;
59907;SDS011;61804;54.926;73.496;2024-02-23T10:59:23;13.48;;;10.25;;
59907;SDS011;61804;54.926;73.496;2024-02-23T11:01:51;20.95;;;11.70;;
59907;SDS011;61804;54.926;73.496;2024-02-23T11:04:20;22.45;;;12.82;;
59907;SDS011;61804;54.926;73.496;2024-02-23T11:06:51;19.48;;;12.75;;
59907;SDS011;61804;54.926;73.496;2024-02-23T11:09:23;16.52;;;10.40;;
59907;SDS011;61804;54.926;73.496;2024-02-23T11:11:55;15.10;;;9.95;;
59907;SDS011;61804;54.926;73.496;2024-02-23T11:14:34;19.38;;;10.80;;
59907;SDS011;61804;54.926;73.496;2024-02-23T11:17:03;18.52;;;9.65;;
59907;SDS011;61804;54.926;73.496;2024-02-23T11:19:34;12.10;;;9.02;;
59907;SDS011;61804;54.926;73.496;2024-02-23T11:22:03;17.30;;;8.18;;
59907;SDS011;61804;54.926;73.496;2024-02-23T11:24:31;12.73;;;9.13;;
59907;SDS011;61804;54.926;73.496;2024-02-23T11:27:00;24.30;;;11.60;;
59907;SDS011;61804;54.926;73.496;2024-02-23T11:29:35;21.35;;;11.75;;
59907;SDS011;61804;54.926;73.496;2024-02-23T11:32:12;26.30;;;15.65;;
59907;SDS011;61804;54.926;73.496;2024-02-23T11:34:41;30.00;;;14.57;;
59907;SDS011;61804;54.926;73.496;2024-02-23T11:37:11;22.02;;;9.88;;
59907;SDS011;61804;54.926;73.496;2024-02-23T11:39:39;15.73;;;7.88;;
59907;SDS011;61804;54.926;73.496;2024-02-23T11:42:07;23.92;;;10.10;;
59907;SDS011;61804;54.926;73.496;2024-02-23T11:44:36;13.35;;;7.63;;
59907;SDS011;61804;54.926;73.496;2024-02-23T11:47:04;16.13;;;8.98;;
59907;SDS011;61804;54.926;73.496;2024-02-23T11:49:32;22.27;;;11.57;;
59907;SDS011;61804;54.926;73.496;2024-02-23T11:51:59;23.73;;;12.30;;
59907;SDS011;61804;54.926;73.496;2024-02-23T11:54:28;17.58;;;10.68;;
59907;SDS011;61804;54.926;73.496;2024-02-23T11:56:56;21.77;;;11.25;;
59907;SDS011;61804;54.926;73.496;2024-02-23T11:59:24;21.17;;;11.30;;
59907;SDS011;61804;54.926;73.496;2024-02-23T12:01:52;19.92;;;9.63;;
59907;SDS011;61804;54.926;73.496;2024-02-23T12:04:19;21.73;;;11.60;;
59907;SDS011;61804;54.926;73.496;2024-02-23T12:06:48;23.83;;;9.93;;
59907;SDS011;61804;54.926;73.496;2024-02-23T12:09:20;27.65;;;12.15;;
59907;SDS011;61804;54.926;73.496;2024-02-23T12:11:49;19.75;;;11.93;;
59907;SDS011;61804;54.926;73.496;2024-02-23T12:14:17;21.02;;;9.15;;
59907;SDS011;61804;54.926;73.496;2024-02-23T12:16:45;18.08;;;10.10;;
59907;SDS011;61804;54.926;73.496;2024-02-23T12:19:12;17.67;;;10.50;;
59907;SDS011;61804;54.926;73.496;2024-02-23T12:21:41;24.35;;;14.23;;
59907;SDS011;61804;54.926;73.496;2024-02-23T12:24:29;29.30;;;18.67;;
59907;SDS011;61804;54.926;73.496;2024-02-23T12:26:57;25.73;;;13.70;;
59907;SDS011;61804;54.926;73.496;2024-02-23T12:29:26;37.47;;;13.80;;
59907;SDS011;61804;54.926;73.496;2024-02-23T12:32:04;23.20;;;11.73;;
59907;SDS011;61804;54.926;73.496;2024-02-23T12:34:31;21.63;;;14.45;;
59907;SDS011;61804;54.926;73.496;2024-02-23T12:37:23;13.43;;;8.02;;
59907;SDS011;61804;54.926;73.496;2024-02-23T12:39:51;18.27;;;12.68;;
59907;SDS011;61804;54.926;73.496;2024-02-23T12:42:19;11.90;;;7.95;;
59907;SDS011;61804;54.926;73.496;2024-02-23T12:44:46;37.85;;;18.10;;
59907;SDS011;61804;54.926;73.496;2024-02-23T12:47:14;24.77;;;16.20;;
59907;SDS011;61804;54.926;73.496;2024-02-23T12:49:57;20.55;;;11.80;;
59907;SDS011;61804;54.926;73.496;2024-02-23T12:52:26;23.90;;;14.20;;
59907;SDS011;61804;54.926;73.496;2024-02-23T12:55:00;14.45;;;8.13;;
59907;SDS011;61804;54.926;73.496;2024-02-23T12:57:28;9.43;;;6.93;;
59907;SDS011;61804;54.926;73.496;2024-02-23T13:00:14;13.98;;;7.72;;
59907;SDS011;61804;54.926;73.496;2024-02-23T13:02:41;15.52;;;7.28;;
59907;SDS011;61804;54.926;73.496;2024-02-23T13:05:10;11.68;;;8.95;;
59907;SDS011;61804;54.926;73.496;2024-02-23T13:07:51;17.38;;;8.85;;
59907;SDS011;61804;54.926;73.496;2024-02-23T13:10:27;26.60;;;7.90;;
59907;SDS011;61804;54.926;73.496;2024-02-23T13:12:54;18.98;;;7.10;;
59907;SDS011;61804;54.926;73.496;2024-02-23T13:15:23;14.65;;;6.53;;
59907;SDS011;61804;54.926;73.496;2024-02-23T13:17:50;11.65;;;7.28;;
59907;SDS011;61804;54.926;73.496;2024-02-23T13:20:23;6.68;;;5.22;;
59907;SDS011;61804;54.926;73.496;2024-02-23T13:22:51;9.35;;;5.55;;
59907;SDS011;61804;54.926;73.496;2024-02-23T13:25:18;10.10;;;5.47;;
59907;SDS011;61804;54.926;73.496;2024-02-23T13:27:46;4.68;;;3.80;;
59907;SDS011;61804;54.926;73.496;2024-02-23T13:30:14;21.48;;;5.63;;
59907;SDS011;61804;54.926;73.496;2024-02-23T13:32:44;10.38;;;5.60;;
59907;SDS011;61804;54.926;73.496;2024-02-23T13:35:12;9.40;;;6.45;;
59907;SDS011;61804;54.926;73.496;2024-02-23T13:37:53;12.55;;;5.80;;
59907;SDS011;61804;54.926;73.496;2024-02-23T13:40:21;15.48;;;11.35;;
59907;SDS011;61804;54.926;73.496;2024-02-23T13:42:50;32.85;;;18.83;;
59907;SDS011;61804;54.926;73.496;2024-02-23T13:45:20;24.90;;;13.27;;
59907;SDS011;61804;54.926;73.496;2024-02-23T13:48:00;20.45;;;10.10;;
59907;SDS011;61804;54.926;73.496;2024-02-23T13:50:28;27.58;;;17.02;;
59907;SDS011;61804;54.926;73.496;2024-02-23T13:52:56;38.08;;;18.15;;
59907;SDS011;61804;54.926;73.496;2024-02-23T13:55:25;14.70;;;10.13;;
59907;SDS011;61804;54.926;73.496;2024-02-23T13:57:52;20.27;;;12.15;;
59907;SDS011;61804;54.926;73.496;2024-02-23T14:00:20;21.20;;;13.85;;
59907;SDS011;61804;54.926;73.496;2024-02-23T14:02:47;34.92;;;18.33;;
59907;SDS011;61804;54.926;73.496;2024-02-23T14:05:15;17.70;;;11.07;;
59907;SDS011;61804;54.926;73.496;2024-02-23T14:07:44;31.35;;;15.68;;
59907;SDS011;61804;54.926;73.496;2024-02-23T14:10:12;18.92;;;12.18;;
59907;SDS011;61804;54.926;73.496;2024-02-23T14:12:40;18.83;;;10.80;;
59907;SDS011;61804;54.926;73.496;2024-02-23T14:15:09;26.50;;;12.45;;
59907;SDS011;61804;54.926;73.496;2024-02-23T14:17:38;18.13;;;9.68;;
59907;SDS011;61804;54.926;73.496;2024-02-23T14:20:06;26.95;;;13.52;;
59907;SDS011;61804;54.926;73.496;2024-02-23T14:22:45;48.63;;;19.75;;